Time;durP1;ratioP1;P1;durP2;ratioP2;P2;SDS_P1;SDS_P2;PMS_P1;PMS_P2;Temp;Humidity;BMP_temperature;BMP_pressure;BME280_temperature;BME280_humidity;BME280_pressure;Samples;Min_cycle;Max_cycle;Signal;HPM_P1;HPM_P2
2023/12/29 00:02:31;;;;;;;;;;;;;;;;;;;;;
2023/12/29 00:19:24;;;;;;;15.52;2.60;;;;;;;-146.25;100.00;70816.00;4956592;28;20202;-62
2023/12/29 00:21:49;;;;;;;16.02;2.80;;;;;;;-146.25;100.00;70816.00;4968856;28;20428;-63
2023/12/29 00:24:20;;;;;;;15.43;2.65;;;;;;;-146.25;100.00;70816.00;5082679;28;20050;-62
2023/12/29 00:26:45;;;;;;;15.68;2.35;;;;;;;-146.25;100.00;70816.00;5073783;28;20039;-62
2023/12/29 00:29:10;;;;;;;12.45;2.35;;;;;;;-146.25;100.00;70816.00;5072313;28;20096;-63
2023/12/29 00:31:36;;;;;;;15.80;2.88;;;;;;;-146.25;100.00;70816.00;5076323;28;20036;-62
2023/12/29 00:34:04;;;;;;;14.77;2.35;;;;;;;-146.25;100.00;70816.00;5090194;28;20063;-62
2023/12/29 00:36:52;;;;;;;13.05;2.45;;;;;;;-146.25;100.00;70816.00;5072171;28;20109;-62
2023/12/29 00:39:17;;;;;;;12.07;2.50;;;;;;;-146.25;100.00;70816.00;5069772;28;20032;-63
2023/12/29 00:41:42;;;;;;;12.48;2.35;;;;;;;-146.25;100.00;70816.00;5072071;28;20038;-62
2023/12/29 00:44:08;;;;;;;12.50;2.50;;;;;;;-146.25;100.00;70816.00;5071857;28;20413;-63
2023/12/29 00:46:34;;;;;;;14.82;2.30;;;;;;;-146.25;100.00;70816.00;5071738;28;20101;-64
2023/12/29 00:48:59;;;;;;;13.52;2.67;;;;;;;-146.25;100.00;70816.00;5071643;28;20122;-64
2023/12/29 00:51:24;;;;;;;11.60;2.38;;;;;;;-146.25;100.00;70816.00;5072011;28;20098;-64
2023/12/29 00:53:50;;;;;;;16.92;2.70;;;;;;;-146.25;100.00;70816.00;5071816;28;20040;-62
2023/12/29 00:56:15;;;;;;;13.07;2.28;;;;;;;-146.25;100.00;70816.00;5072018;28;20137;-64
2023/12/29 00:58:41;;;;;;;18.48;2.65;;;;;;;-146.25;100.00;70816.00;5072483;28;20108;-63
2023/12/29 01:01:08;;;;;;;18.23;2.78;;;;;;;-146.25;100.00;70816.00;5073520;28;20173;-64
2023/12/29 01:03:34;;;;;;;13.13;2.33;;;;;;;-146.25;100.00;70816.00;5071471;28;20062;-65
2023/12/29 01:06:00;;;;;;;16.08;2.70;;;;;;;-146.25;100.00;70816.00;5097139;28;20051;-63
2023/12/29 01:08:25;;;;;;;16.52;2.63;;;;;;;-146.25;100.00;70816.00;5095934;28;20076;-63
2023/12/29 01:10:51;;;;;;;16.80;3.05;;;;;;;-146.25;100.00;70816.00;5095654;28;20380;-64
2023/12/29 01:13:17;;;;;;;15.27;2.90;;;;;;;-146.25;100.00;70816.00;5096783;28;20039;-63
2023/12/29 01:15:45;;;;;;;11.75;2.50;;;;;;;-146.25;100.00;70816.00;5095265;28;20048;-63
2023/12/29 01:18:14;;;;;;;10.50;2.58;;;;;;;-146.25;100.00;70816.00;5098290;28;21569;-63
2023/12/29 01:20:40;;;;;;;17.02;2.90;;;;;;;-146.25;100.00;70816.00;5097931;28;20043;-64
2023/12/29 01:23:06;;;;;;;13.68;2.35;;;;;;;-146.25;100.00;70816.00;5099775;28;20047;-64
2023/12/29 01:25:31;;;;;;;12.63;2.28;;;;;;;-146.25;100.00;70816.00;5099048;28;20031;-63
2023/12/29 01:28:07;;;;;;;14.88;2.50;;;;;;;-146.25;100.00;70816.00;5097923;28;20508;-62
2023/12/29 01:30:36;;;;;;;16.73;2.80;;;;;;;-146.25;100.00;70816.00;5098592;28;20122;-63
2023/12/29 01:33:02;;;;;;;19.25;2.95;;;;;;;-146.25;100.00;70816.00;5096996;28;20043;-63
2023/12/29 01:35:27;;;;;;;16.17;3.22;;;;;;;-146.25;100.00;70816.00;5096919;28;20043;-62
2023/12/29 01:37:55;;;;;;;14.60;2.67;;;;;;;-146.25;100.00;70816.00;5097148;28;20047;-63
2023/12/29 01:40:20;;;;;;;15.23;3.10;;;;;;;-146.25;100.00;70816.00;5094238;28;20161;-63
2023/12/29 01:42:45;;;;;;;15.43;2.80;;;;;;;-146.25;100.00;70816.00;5098097;28;20040;-63
2023/12/29 01:45:22;;;;;;;17.27;2.92;;;;;;;-146.25;100.00;70816.00;5099937;28;20135;-64
2023/12/29 01:47:48;;;;;;;15.60;2.75;;;;;;;-146.25;100.00;70816.00;5095322;28;20111;-62
2023/12/29 01:50:14;;;;;;;19.02;3.20;;;;;;;-146.25;100.00;70816.00;5095509;28;20032;-63
2023/12/29 01:52:41;;;;;;;17.02;2.97;;;;;;;-146.25;100.00;70816.00;5097309;28;20482;-64
2023/12/29 01:55:11;;;;;;;13.27;2.60;;;;;;;-146.25;100.00;70816.00;5097796;28;20558;-63
2023/12/29 01:57:38;;;;;;;14.25;2.85;;;;;;;-146.25;100.00;70816.00;5099005;28;20036;-64
2023/12/29 02:00:05;;;;;;;15.43;2.60;;;;;;;-146.25;100.00;70816.00;5100546;28;20040;-63
2023/12/29 02:10:15;;;;;;;;;;;;;;;;;;;;;
2023/12/29 02:16:34;;;;;;;16.52;2.90;;;;;;;-146.25;100.00;70816.00;4936246;28;20030;-63
2023/12/29 02:19:04;;;;;;;15.65;2.75;;;;;;;-146.25;100.00;70816.00;5070479;28;20378;-64
2023/12/29 02:21:29;;;;;;;18.27;3.03;;;;;;;-146.25;100.00;70816.00;5071071;28;20043;-64
2023/12/29 02:23:55;;;;;;;14.40;2.50;;;;;;;-146.25;100.00;70816.00;5070896;28;20188;-64
2023/12/29 02:29:33;;;;;;;15.93;2.83;;;;;;;-146.25;100.00;70816.00;5039419;28;20123;-64
2023/12/29 02:32:01;;;;;;;17.23;2.95;;;;;;;-146.25;100.00;70816.00;5070548;28;20470;-63
2023/12/29 02:34:29;;;;;;;19.33;3.47;;;;;;;-146.25;100.00;70816.00;5070951;28;20165;-63
2023/12/29 02:36:56;;;;;;;14.40;2.50;;;;;;;-146.25;100.00;70816.00;5071691;28;20462;-62
2023/12/29 02:39:21;;;;;;;15.40;2.60;;;;;;;-146.25;100.00;70816.00;5070634;28;20111;-62
2023/12/29 02:52:32;;;;;;;12.40;2.60;;;;;;;-146.25;100.00;70816.00;5005732;28;20268;-62
2023/12/29 02:54:57;;;;;;;15.38;2.60;;;;;;;-146.25;100.00;70816.00;5007831;28;20092;-63
2023/12/29 02:57:22;;;;;;;15.07;2.33;;;;;;;-146.25;100.00;70816.00;5071181;28;20032;-63
2023/12/29 02:59:48;;;;;;;13.25;2.40;;;;;;;-146.25;100.00;70816.00;5070415;28;20032;-63
2023/12/29 03:02:13;;;;;;;10.07;2.47;;;;;;;-146.25;100.00;70816.00;5069304;28;20401;-63
2023/12/29 03:04:39;;;;;;;11.93;2.20;;;;;;;-146.25;100.00;70816.00;5070092;28;20511;-62
2023/12/29 03:07:04;;;;;;;15.65;2.65;;;;;;;-146.25;100.00;70816.00;5070693;28;20085;-62
2023/12/29 03:09:29;;;;;;;11.95;2.58;;;;;;;-146.25;100.00;70816.00;5070217;28;20097;-63
2023/12/29 03:11:55;;;;;;;15.05;3.13;;;;;;;-146.25;100.00;70816.00;5070333;28;20370;-62
2023/12/29 03:14:20;;;;;;;9.25;2.25;;;;;;;-146.25;100.00;70816.00;5069784;28;20084;-62
2023/12/29 03:16:45;;;;;;;14.32;2.55;;;;;;;-146.25;100.00;70816.00;5070982;28;20092;-63
2023/12/29 03:19:11;;;;;;;13.07;2.80;;;;;;;-146.25;100.00;70816.00;5071487;28;20036;-64
2023/12/29 03:21:36;;;;;;;12.38;2.50;;;;;;;-146.25;100.00;70816.00;5073252;28;20064;-64
2023/12/29 03:24:02;;;;;;;15.88;3.00;;;;;;;-146.25;100.00;70816.00;5072062;28;20452;-62
2023/12/29 03:26:27;;;;;;;11.45;2.35;;;;;;;-146.25;100.00;70816.00;5072115;28;20044;-63
2023/12/29 03:28:53;;;;;;;12.23;2.47;;;;;;;-146.25;100.00;70816.00;5073007;28;20518;-63
2023/12/29 03:31:19;;;;;;;14.10;2.42;;;;;;;-146.25;100.00;70816.00;5071801;28;20044;-63
2023/12/29 03:33:44;;;;;;;16.40;2.70;;;;;;;-146.25;100.00;70816.00;5072288;28;20077;-62
2023/12/29 03:36:09;;;;;;;14.15;2.40;;;;;;;-146.25;100.00;70816.00;5072302;28;20039;-63
2023/12/29 03:38:36;;;;;;;15.00;2.60;;;;;;;-146.25;100.00;70816.00;5074233;28;20479;-63
2023/12/29 03:41:02;;;;;;;15.13;2.55;;;;;;;-146.25;100.00;70816.00;5071904;28;20129;-63
2023/12/29 03:43:27;;;;;;;17.40;2.40;;;;;;;-146.25;100.00;70816.00;5074275;28;20058;-62
2023/12/29 03:45:52;;;;;;;20.98;3.28;;;;;;;-146.25;100.00;70816.00;5088384;28;20430;-64
2023/12/29 03:48:18;;;;;;;13.27;2.40;;;;;;;-146.25;100.00;70816.00;5072501;28;20414;-65
2023/12/29 03:50:43;;;;;;;16.77;2.90;;;;;;;-146.25;100.00;70816.00;5072025;28;20036;-63
2023/12/29 03:53:08;;;;;;;19.17;2.83;;;;;;;-146.25;100.00;70816.00;5075972;28;20116;-63
2023/12/29 03:55:34;;;;;;;14.32;2.60;;;;;;;-146.25;100.00;70816.00;5076319;28;20058;-62
2023/12/29 03:58:01;;;;;;;12.65;2.50;;;;;;;-146.25;100.00;70816.00;5078377;28;20043;-62
2023/12/29 04:00:27;;;;;;;17.83;3.05;;;;;;;-146.25;100.00;70816.00;5075649;28;20479;-62
2023/12/29 04:02:52;;;;;;;16.83;2.67;;;;;;;-146.25;100.00;70816.00;5073690;28;20047;-62
2023/12/29 04:05:20;;;;;;;15.38;2.35;;;;;;;-146.25;100.00;70816.00;5083644;27;20062;-62
2023/12/29 04:07:45;;;;;;;14.52;2.75;;;;;;;-146.25;100.00;70816.00;5094070;28;20043;-63
2023/12/29 04:10:11;;;;;;;14.27;3.03;;;;;;;-146.25;100.00;70816.00;5093769;28;20051;-64
2023/12/29 04:12:36;;;;;;;16.15;2.67;;;;;;;-146.25;100.00;70816.00;5092196;28;20035;-63
2023/12/29 04:15:03;;;;;;;16.30;3.25;;;;;;;-146.25;100.00;70816.00;5093245;27;20035;-64
2023/12/29 04:17:29;;;;;;;14.10;2.63;;;;;;;-146.25;100.00;70816.00;5093739;28;20031;-63
2023/12/29 04:19:54;;;;;;;13.77;2.58;;;;;;;-146.25;100.00;70816.00;5093846;28;20394;-64
2023/12/29 04:22:19;;;;;;;15.43;2.67;;;;;;;-146.25;100.00;70816.00;5093524;28;20077;-63
2023/12/29 04:24:45;;;;;;;13.43;2.63;;;;;;;-146.25;100.00;70816.00;5093353;28;20502;-63
2023/12/29 04:27:10;;;;;;;16.13;2.65;;;;;;;-146.25;100.00;70816.00;5092814;28;20040;-63
2023/12/29 04:29:36;;;;;;;16.45;2.95;;;;;;;-146.25;100.00;70816.00;5093506;28;20062;-63
2023/12/29 04:53:05;;;;;;;16.40;3.20;;;;;;;-146.25;100.00;70816.00;4951497;28;20144;-62
2023/12/29 04:55:31;;;;;;;18.63;3.08;;;;;;;-146.25;100.00;70816.00;5010174;28;20137;-63
2023/12/29 04:57:56;;;;;;;17.45;3.33;;;;;;;-146.25;100.00;70816.00;5010689;28;20123;-63
2023/12/29 05:00:22;;;;;;;15.32;2.60;;;;;;;-146.25;100.00;70816.00;5008970;28;20103;-63
2023/12/29 05:07:14;;;;;;;15.63;2.90;;;;;;;-146.25;100.00;70816.00;4958917;28;20117;-63
2023/12/29 05:09:40;;;;;;;14.90;2.72;;;;;;;-146.25;100.00;70816.00;4913058;29;20550;-63
2023/12/29 05:12:05;;;;;;;15.30;2.70;;;;;;;-146.25;100.00;70816.00;4963611;28;20190;-64
2023/12/29 05:14:31;;;;;;;16.55;2.92;;;;;;;-146.25;100.00;70816.00;5018940;28;20325;-63
2023/12/29 05:16:56;;;;;;;18.33;3.08;;;;;;;-146.25;100.00;70816.00;5071455;28;20111;-63
2023/12/29 05:19:21;;;;;;;19.70;3.03;;;;;;;-146.25;100.00;70816.00;5071992;28;20068;-62
2023/12/29 05:21:49;;;;;;;17.55;3.22;;;;;;;-146.25;100.00;70816.00;5071889;28;20059;-63
2023/12/29 05:24:15;;;;;;;14.65;2.70;;;;;;;-146.25;100.00;70816.00;5071974;28;20043;-62
2023/12/29 05:26:40;;;;;;;16.88;2.88;;;;;;;-146.25;100.00;70816.00;5070571;28;20404;-62
2023/12/29 05:29:05;;;;;;;18.70;3.58;;;;;;;-146.25;100.00;70816.00;5072375;28;20128;-62
2023/12/29 05:31:31;;;;;;;19.80;2.95;;;;;;;-146.25;100.00;70816.00;5070181;28;20108;-63
2023/12/29 05:33:56;;;;;;;18.52;2.97;;;;;;;-146.25;100.00;70816.00;5071175;28;20039;-63
2023/12/29 05:36:22;;;;;;;15.30;2.67;;;;;;;-146.25;100.00;70816.00;5070618;28;20048;-63
2023/12/29 05:38:47;;;;;;;13.32;2.70;;;;;;;-146.25;100.00;70816.00;5071040;28;20036;-62
2023/12/29 05:41:13;;;;;;;14.68;2.58;;;;;;;-146.25;100.00;70816.00;5071079;28;20032;-63
2023/12/29 05:43:39;;;;;;;16.50;2.88;;;;;;;-146.25;100.00;70816.00;5071597;28;20036;-63
2023/12/29 05:46:11;;;;;;;16.40;3.13;;;;;;;-146.25;100.00;70816.00;5071751;28;20038;-63
2023/12/29 05:48:43;;;;;;;19.83;3.33;;;;;;;-146.25;100.00;70816.00;5071888;28;20095;-63
2023/12/29 05:51:13;;;;;;;16.20;3.03;;;;;;;-146.25;100.00;70816.00;5071110;28;20444;-63
2023/12/29 05:53:40;;;;;;;15.75;2.88;;;;;;;-146.25;100.00;70816.00;5071274;28;20134;-63
2023/12/29 05:56:05;;;;;;;18.23;2.75;;;;;;;-146.25;100.00;70816.00;5069162;28;20056;-63
2023/12/29 05:58:31;;;;;;;17.45;2.85;;;;;;;-146.25;100.00;70816.00;5070736;28;20480;-63
2023/12/29 06:00:57;;;;;;;16.15;2.90;;;;;;;-146.25;100.00;70816.00;5071738;28;20119;-63
2023/12/29 06:03:23;;;;;;;13.45;2.63;;;;;;;-146.25;100.00;70816.00;5070837;28;20170;-64
2023/12/29 06:05:48;;;;;;;14.93;2.90;;;;;;;-146.25;100.00;70816.00;5073913;27;20164;-63
2023/12/29 06:08:14;;;;;;;14.55;2.70;;;;;;;-146.25;100.00;70816.00;5090707;28;20027;-64
2023/12/29 06:10:39;;;;;;;14.73;2.75;;;;;;;-146.25;100.00;70816.00;5090718;27;20042;-64
2023/12/29 06:13:05;;;;;;;14.02;2.78;;;;;;;-146.25;100.00;70816.00;5091019;28;20035;-63
2023/12/29 06:15:30;;;;;;;10.13;2.55;;;;;;;-146.25;100.00;70816.00;5090031;28;20112;-63
2023/12/29 06:17:56;;;;;;;17.52;2.92;;;;;;;-146.25;100.00;70816.00;5092269;28;20099;-63
2023/12/29 06:20:22;;;;;;;14.18;2.92;;;;;;;-146.25;100.00;70816.00;5090814;28;20040;-63
2023/12/29 06:22:47;;;;;;;15.90;2.72;;;;;;;-146.25;100.00;70816.00;5091223;28;20035;-64
2023/12/29 06:25:13;;;;;;;15.50;3.33;;;;;;;-146.25;100.00;70816.00;5091039;28;20443;-62
2023/12/29 06:27:40;;;;;;;17.52;2.55;;;;;;;-146.25;100.00;70816.00;5090990;28;20042;-63
2023/12/29 06:30:09;;;;;;;14.43;2.58;;;;;;;-146.25;100.00;70816.00;5091064;28;20088;-63
2023/12/29 06:32:35;;;;;;;20.92;2.90;;;;;;;-146.25;100.00;70816.00;5091040;28;20126;-62
2023/12/29 06:35:00;;;;;;;14.30;2.85;;;;;;;-146.25;100.00;70816.00;5091608;28;20127;-64
2023/12/29 06:37:35;;;;;;;17.25;3.45;;;;;;;-146.25;100.00;70816.00;5101997;28;20055;-63
2023/12/29 06:40:01;;;;;;;16.77;3.00;;;;;;;-146.25;100.00;70816.00;5091486;28;20051;-63
2023/12/29 06:42:30;;;;;;;16.08;2.65;;;;;;;-146.25;100.00;70816.00;5100676;28;20068;-63
2023/12/29 06:45:10;;;;;;;;;;;;;;;;;;;;;
2023/12/29 06:47:49;;;;;;;;;;;;;;;;;;;;;
2023/12/29 06:53:23;;;;;;;10.98;2.40;;;;;;;-146.25;100.00;70816.00;5074235;27;20035;-63
2023/12/29 06:55:50;;;;;;;18.05;2.95;;;;;;;-146.25;100.00;70816.00;5087986;28;20032;-64
2023/12/29 06:58:16;;;;;;;15.32;2.90;;;;;;;-146.25;100.00;70816.00;5087157;28;20051;-65
2023/12/29 07:00:48;;;;;;;16.33;2.65;;;;;;;-146.25;100.00;70816.00;5088405;27;20426;-64
2023/12/29 07:03:27;;;;;;;;;;;;;;;;;;;;;
2023/12/29 07:05:55;;;;;;;12.43;2.20;;;;;;;-146.25;100.00;70816.00;5099797;28;20055;-64
2023/12/29 07:08:26;;;;;;;17.58;3.10;;;;;;;-146.25;100.00;70816.00;5095095;28;20107;-62
2023/12/29 07:11:12;;;;;;;11.75;2.10;;;;;;;-146.25;100.00;70816.00;5095130;28;21465;-63
2023/12/29 07:13:49;;;;;;;15.88;2.55;;;;;;;-146.25;100.00;70816.00;5093229;28;20047;-64
2023/12/29 07:16:26;;;;;;;17.75;2.60;;;;;;;-146.25;100.00;70816.00;5095619;28;20117;-62
2023/12/29 07:19:27;;;;;;;16.20;2.60;;;;;;;-146.25;100.00;70816.00;5094535;28;20192;-65
2023/12/29 07:21:58;;;;;;;14.95;2.58;;;;;;;-146.25;100.00;70816.00;5097081;28;20027;-64
2023/12/29 07:27:25;;;;;;;17.92;2.80;;;;;;;-146.25;100.00;70816.00;5084024;28;20040;-63
2023/12/29 07:29:58;;;;;;;16.35;2.80;;;;;;;-146.25;100.00;70816.00;5091403;28;20032;-63
2023/12/29 07:32:33;;;;;;;12.60;2.30;;;;;;;-146.25;100.00;70816.00;5112021;28;20106;-64
2023/12/29 07:35:04;;;;;;;13.73;2.70;;;;;;;-146.25;100.00;70816.00;5106480;28;20086;-64
2023/12/29 07:37:31;;;;;;;12.80;2.60;;;;;;;-146.25;100.00;70816.00;5095544;28;20188;-63
2023/12/29 07:39:59;;;;;;;15.15;2.78;;;;;;;-146.25;100.00;70816.00;5099323;28;20039;-63
2023/12/29 07:42:25;;;;;;;12.32;2.90;;;;;;;-146.25;100.00;70816.00;5096837;28;20039;-64
2023/12/29 07:44:56;;;;;;;14.70;2.83;;;;;;;-146.25;100.00;70816.00;5096379;28;20448;-63
2023/12/29 07:47:21;;;;;;;12.80;2.47;;;;;;;-146.25;100.00;70816.00;5098996;28;20071;-64
2023/12/29 07:49:49;;;;;;;14.18;3.08;;;;;;;-146.25;100.00;70816.00;5098419;28;20458;-64
2023/12/29 07:52:14;;;;;;;15.45;2.58;;;;;;;-146.25;100.00;70816.00;5097203;28;20039;-64
2023/12/29 07:54:44;;;;;;;14.25;2.45;;;;;;;-146.25;100.00;70816.00;5097523;28;20035;-64
2023/12/29 07:57:09;;;;;;;15.43;2.60;;;;;;;-146.25;100.00;70816.00;5096309;28;20051;-64
2023/12/29 07:59:38;;;;;;;12.82;2.45;;;;;;;-146.25;100.00;70816.00;5097615;28;20040;-63
2023/12/29 08:02:04;;;;;;;11.77;2.50;;;;;;;-146.25;100.00;70816.00;5095839;28;20039;-63
2023/12/29 08:04:30;;;;;;;9.35;2.05;;;;;;;-146.25;100.00;70816.00;5097989;28;20035;-64
2023/12/29 08:07:00;;;;;;;10.23;2.17;;;;;;;-146.25;100.00;70816.00;5096065;28;20059;-64
2023/12/29 08:09:25;;;;;;;8.80;2.20;;;;;;;-146.25;100.00;70816.00;5091893;28;20537;-64
2023/12/29 08:11:51;;;;;;;14.02;2.50;;;;;;;-146.25;100.00;70816.00;5090352;28;20047;-63
2023/12/29 08:14:19;;;;;;;8.40;2.50;;;;;;;-146.25;100.00;70816.00;5091873;28;20043;-64
2023/12/29 08:16:47;;;;;;;11.95;2.20;;;;;;;-146.25;100.00;70816.00;5094101;28;20032;-63
2023/12/29 08:19:15;;;;;;;6.47;1.98;;;;;;;-146.25;100.00;70816.00;5094196;28;20027;-64
2023/12/29 08:21:42;;;;;;;9.70;2.00;;;;;;;-146.25;100.00;70816.00;5093467;28;20035;-64
2023/12/29 08:24:17;;;;;;;7.38;1.80;;;;;;;-146.25;100.00;70816.00;5094376;28;20028;-63
2023/12/29 08:26:46;;;;;;;10.60;2.00;;;;;;;-146.25;100.00;70816.00;5098014;28;20054;-64
2023/12/29 08:29:15;;;;;;;11.20;2.10;;;;;;;-146.25;100.00;70816.00;5095203;28;20066;-62
2023/12/29 08:56:29;;;;;;;;;;;;;;;;;;;;;
2023/12/29 09:06:45;;;;;;;7.38;1.77;;;;;;;-146.25;100.00;70816.00;4973030;28;20190;-60
2023/12/29 11:34:56;;;;;;;8.95;1.90;;;;;;;-146.25;100.00;70816.00;5105872;22;20163;-65
2023/12/29 11:37:49;;;;;;;8.63;2.20;;;;;;;-146.25;100.00;70816.00;5092138;22;20048;-66
2023/12/29 11:40:28;;;;;;;10.90;2.40;;;;;;;-146.25;100.00;70816.00;5082212;28;20040;-66
2023/12/29 11:42:57;;;;;;;16.05;2.60;;;;;;;-146.25;100.00;70816.00;5087367;28;20553;-65
2023/12/29 11:45:32;;;;;;;15.45;3.15;;;;;;;-146.25;100.00;70816.00;5087838;28;20469;-65
2023/12/29 11:48:00;;;;;;;13.15;2.60;;;;;;;-146.25;100.00;70816.00;5090548;28;20110;-66
2023/12/29 11:50:33;;;;;;;11.63;2.00;;;;;;;-146.25;100.00;70816.00;5090250;28;20040;-65
2023/12/29 11:52:59;;;;;;;11.85;2.38;;;;;;;-146.25;100.00;70816.00;5082307;28;20056;-65
2023/12/29 11:55:35;;;;;;;11.25;2.25;;;;;;;-146.25;100.00;70816.00;5084958;28;20028;-65
2023/12/29 11:58:01;;;;;;;15.60;3.08;;;;;;;-146.25;100.00;70816.00;5080641;28;20044;-65
2023/12/29 12:00:49;;;;;;;12.10;2.50;;;;;;;-146.25;100.00;70816.00;5078742;28;20122;-66
2023/12/29 12:03:25;;;;;;;17.02;3.60;;;;;;;-146.25;100.00;70816.00;5076163;28;20041;-66
2023/12/29 12:05:51;;;;;;;15.00;2.75;;;;;;;-146.25;100.00;70816.00;5072879;28;20032;-65
2023/12/29 12:08:28;;;;;;;16.10;2.80;;;;;;;-146.25;100.00;70816.00;5074140;28;20073;-66
2023/12/29 12:10:54;;;;;;;11.80;2.17;;;;;;;-146.25;100.00;70816.00;5078922;28;20078;-64
2023/12/29 12:13:58;;;;;;;11.60;2.30;;;;;;;-146.25;100.00;70816.00;5082173;28;20051;-67
2023/12/29 12:16:42;;;;;;;10.55;2.38;;;;;;;-146.25;100.00;70816.00;4996214;28;20046;-66
2023/12/29 12:19:08;;;;;;;8.93;2.50;;;;;;;-146.25;100.00;70816.00;5079981;28;20040;-66
2023/12/29 12:21:33;;;;;;;8.80;2.40;;;;;;;-146.25;100.00;70816.00;5091832;28;20035;-65
2023/12/29 12:24:00;;;;;;;11.02;2.38;;;;;;;-146.25;100.00;70816.00;5085045;28;20472;-66
2023/12/29 12:26:26;;;;;;;8.05;2.00;;;;;;;-146.25;100.00;70816.00;5075118;28;20231;-66
2023/12/29 12:28:53;;;;;;;6.82;1.60;;;;;;;-146.25;100.00;70816.00;5091619;28;20422;-66
2023/12/29 12:31:18;;;;;;;4.97;1.63;;;;;;;-146.25;100.00;70816.00;5081190;28;20024;-66
2023/12/29 12:33:56;;;;;;;11.95;2.15;;;;;;;-146.25;100.00;70816.00;5073278;28;20029;-67
2023/12/29 12:36:21;;;;;;;7.25;2.33;;;;;;;-146.25;100.00;70816.00;5090258;28;20048;-65
2023/12/29 12:38:54;;;;;;;10.95;2.72;;;;;;;-146.25;100.00;70816.00;5090769;28;20039;-66
2023/12/29 12:41:22;;;;;;;10.32;2.70;;;;;;;-146.25;100.00;70816.00;5093197;28;20032;-65
2023/12/29 12:44:12;;;;;;;10.70;3.08;;;;;;;-146.25;100.00;70816.00;5080046;28;20039;-66
2023/12/29 12:46:50;;;;;;;14.57;4.18;;;;;;;-146.25;100.00;70816.00;5075454;28;20503;-66
2023/12/29 12:49:16;;;;;;;21.98;6.05;;;;;;;-146.25;100.00;70816.00;5086177;28;20040;-68
2023/12/29 12:51:42;;;;;;;19.27;4.93;;;;;;;-146.25;100.00;70816.00;5077704;28;20492;-65
2023/12/29 12:54:09;;;;;;;20.55;6.25;;;;;;;-146.25;100.00;70816.00;5076961;28;20031;-67
2023/12/29 12:56:35;;;;;;;14.18;3.80;;;;;;;-146.25;100.00;70816.00;5075451;28;20456;-67
2023/12/29 12:59:02;;;;;;;11.20;2.90;;;;;;;-146.25;100.00;70816.00;5074558;28;20272;-65
2023/12/29 13:01:29;;;;;;;9.77;2.78;;;;;;;-146.25;100.00;70816.00;5075924;28;20510;-66
2023/12/29 13:03:58;;;;;;;7.28;1.80;;;;;;;-146.25;100.00;70816.00;5073743;28;20033;-65
2023/12/29 13:06:23;;;;;;;6.97;1.90;;;;;;;-146.25;100.00;70816.00;5081632;28;20051;-67
2023/12/29 13:08:51;;;;;;;7.97;2.30;;;;;;;-146.25;100.00;70816.00;5078241;28;20047;-66
2023/12/29 13:11:21;;;;;;;8.82;2.42;;;;;;;-146.25;100.00;70816.00;5072586;28;20076;-65
2023/12/29 13:13:47;;;;;;;12.43;3.55;;;;;;;-146.25;100.00;70816.00;5065940;28;20044;-65
2023/12/29 13:16:13;;;;;;;11.00;2.75;;;;;;;-146.25;100.00;70816.00;5074842;28;20128;-66
2023/12/29 13:18:39;;;;;;;9.85;2.88;;;;;;;-146.25;100.00;70816.00;5078617;28;20526;-66
2023/12/29 13:21:06;;;;;;;12.70;3.35;;;;;;;-146.25;100.00;70816.00;5077237;28;20139;-66
2023/12/29 13:23:32;;;;;;;10.73;2.92;;;;;;;-146.25;100.00;70816.00;5075130;28;20141;-65
2023/12/29 13:26:01;;;;;;;16.50;3.75;;;;;;;-146.25;100.00;70816.00;5075778;28;20104;-66
2023/12/29 13:28:28;;;;;;;14.90;3.80;;;;;;;-146.25;100.00;70816.00;5065148;28;20043;-65
2023/12/29 13:30:54;;;;;;;13.98;3.50;;;;;;;-146.25;100.00;70816.00;5076497;28;20036;-64
2023/12/29 13:33:25;;;;;;;10.23;2.72;;;;;;;-146.25;100.00;70816.00;5075488;28;20189;-65
2023/12/29 13:35:57;;;;;;;9.02;2.90;;;;;;;-146.25;100.00;70816.00;5075785;28;20115;-66
2023/12/29 13:38:33;;;;;;;14.05;3.20;;;;;;;-146.25;100.00;70816.00;5075427;28;20032;-65
2023/12/29 13:41:05;;;;;;;13.65;3.15;;;;;;;-146.25;100.00;70816.00;5073199;28;20077;-65
2023/12/29 13:43:34;;;;;;;11.75;3.58;;;;;;;-146.25;100.00;70816.00;5073288;28;20040;-65
2023/12/29 13:46:00;;;;;;;13.65;4.10;;;;;;;-146.25;100.00;70816.00;5075534;28;20044;-66
2023/12/29 13:48:27;;;;;;;14.25;3.20;;;;;;;-146.25;100.00;70816.00;5077456;28;20071;-66
2023/12/29 13:50:52;;;;;;;12.02;3.55;;;;;;;-146.25;100.00;70816.00;5085937;28;20040;-64
2023/12/29 13:53:18;;;;;;;13.18;3.55;;;;;;;-146.25;100.00;70816.00;5077517;28;20487;-64
2023/12/29 13:55:44;;;;;;;13.32;3.22;;;;;;;-146.25;100.00;70816.00;5075692;28;20055;-64
2023/12/29 13:58:11;;;;;;;10.25;3.40;;;;;;;-146.25;100.00;70816.00;5077791;28;20048;-65
2023/12/29 14:00:37;;;;;;;15.00;3.60;;;;;;;-146.25;100.00;70816.00;5078378;28;20040;-63
2023/12/29 14:03:10;;;;;;;13.43;3.47;;;;;;;-146.25;100.00;70816.00;5074691;28;20440;-63
2023/12/29 14:05:51;;;;;;;11.52;3.15;;;;;;;-146.25;100.00;70816.00;5065254;28;20042;-64
2023/12/29 14:08:20;;;;;;;13.55;2.97;;;;;;;-146.25;100.00;70816.00;5075651;28;20051;-64
2023/12/29 14:10:45;;;;;;;13.07;3.10;;;;;;;-146.25;100.00;70816.00;5073590;28;20545;-64
2023/12/29 14:13:16;;;;;;;14.32;3.35;;;;;;;-146.25;100.00;70816.00;5073548;28;20040;-64
2023/12/29 14:15:43;;;;;;;12.27;2.92;;;;;;;-146.25;100.00;70816.00;5063056;28;20035;-64
2023/12/29 14:18:33;;;;;;;10.65;2.70;;;;;;;-146.25;100.00;70816.00;5075974;28;20033;-63
2023/12/29 14:20:59;;;;;;;10.52;2.70;;;;;;;-146.25;100.00;70816.00;5071987;28;20476;-66
2023/12/29 14:23:25;;;;;;;11.77;2.60;;;;;;;-146.25;100.00;70816.00;5075916;28;20094;-63
2023/12/29 14:25:50;;;;;;;11.85;2.78;;;;;;;-146.25;100.00;70816.00;5073571;28;20558;-65
2023/12/29 14:28:22;;;;;;;12.32;2.65;;;;;;;-146.25;100.00;70816.00;5073991;28;20036;-64
2023/12/29 14:30:47;;;;;;;6.55;2.03;;;;;;;-146.25;100.00;70816.00;5076248;28;20169;-63
2023/12/29 14:33:12;;;;;;;10.52;2.70;;;;;;;-146.25;100.00;70816.00;5074335;28;20036;-64
2023/12/29 14:35:38;;;;;;;8.15;2.20;;;;;;;-146.25;100.00;70816.00;5071745;28;20127;-65
2023/12/29 14:38:03;;;;;;;11.30;2.50;;;;;;;-146.25;100.00;70816.00;5073289;28;20508;-64
2023/12/29 14:40:29;;;;;;;10.02;2.80;;;;;;;-146.25;100.00;70816.00;5071845;28;20036;-64
2023/12/29 14:42:54;;;;;;;11.55;2.53;;;;;;;-146.25;100.00;70816.00;5072745;28;20245;-63
2023/12/29 14:45:20;;;;;;;8.77;2.40;;;;;;;-146.25;100.00;70816.00;5073177;28;20044;-64
2023/12/29 14:47:45;;;;;;;8.77;2.10;;;;;;;-146.25;100.00;70816.00;5076012;28;20545;-63
2023/12/29 14:50:11;;;;;;;9.20;2.20;;;;;;;-146.25;100.00;70816.00;5073454;28;20059;-65
2023/12/29 14:52:37;;;;;;;10.98;2.50;;;;;;;-146.25;100.00;70816.00;5077380;28;20044;-64
2023/12/29 14:55:03;;;;;;;7.63;2.10;;;;;;;-146.25;100.00;70816.00;5063436;28;20028;-64
2023/12/29 14:57:28;;;;;;;8.65;2.35;;;;;;;-146.25;100.00;70816.00;5073917;28;20081;-65
2023/12/29 14:59:53;;;;;;;12.80;2.70;;;;;;;-146.25;100.00;70816.00;5073511;28;20032;-64
2023/12/29 15:02:19;;;;;;;10.55;2.65;;;;;;;-146.25;100.00;70816.00;5074041;28;20048;-65
2023/12/29 15:04:44;;;;;;;8.25;2.00;;;;;;;-146.25;100.00;70816.00;5071654;28;20045;-66
2023/12/29 15:07:09;;;;;;;8.40;2.20;;;;;;;-146.25;100.00;70816.00;5074565;28;20053;-64
2023/12/29 15:09:35;;;;;;;8.15;2.55;;;;;;;-146.25;100.00;70816.00;5072050;28;20044;-64
2023/12/29 15:12:01;;;;;;;7.43;1.70;;;;;;;-146.25;100.00;70816.00;5075793;28;20044;-64
2023/12/29 15:14:27;;;;;;;10.00;2.13;;;;;;;-146.25;100.00;70816.00;5075055;28;20050;-63
2023/12/29 15:16:52;;;;;;;6.40;1.70;;;;;;;-146.25;100.00;70816.00;5072898;28;20121;-64
2023/12/29 15:19:18;;;;;;;7.35;1.60;;;;;;;-146.25;100.00;70816.00;5075196;28;20044;-64
2023/12/29 15:21:43;;;;;;;7.63;2.00;;;;;;;-146.25;100.00;70816.00;5072386;28;20192;-63
2023/12/29 15:24:09;;;;;;;9.90;1.88;;;;;;;-146.25;100.00;70816.00;5074389;28;20040;-65